sensor_id;sensor_type;location;lat;lon;timestamp;P1;durP1;ratioP1;P2;durP2;ratioP2
73487;SDS011;61721;42.206;25.320;2022-12-07T00:01:04;20.02;;;8.70;;
73487;SDS011;61721;42.206;25.320;2022-12-07T00:03:32;19.55;;;9.52;;
73487;SDS011;61721;42.206;25.320;2022-12-07T00:05:59;19.75;;;9.68;;
73487;SDS011;61721;42.206;25.320;2022-12-07T00:08:27;19.45;;;9.63;;
73487;SDS011;61721;42.206;25.320;2022-12-07T00:10:55;19.27;;;8.63;;
73487;SDS011;61721;42.206;25.320;2022-12-07T00:13:28;20.95;;;9.50;;
73487;SDS011;61721;42.206;25.320;2022-12-07T00:15:55;22.45;;;9.93;;
73487;SDS011;61721;42.206;25.320;2022-12-07T00:18:22;21.17;;;10.30;;
73487;SDS011;61721;42.206;25.320;2022-12-07T00:20:49;22.85;;;11.60;;
73487;SDS011;61721;42.206;25.320;2022-12-07T00:23:16;24.27;;;10.90;;
73487;SDS011;61721;42.206;25.320;2022-12-07T00:25:44;18.67;;;9.35;;
73487;SDS011;61721;42.206;25.320;2022-12-07T00:28:11;16.60;;;8.70;;
73487;SDS011;61721;42.206;25.320;2022-12-07T00:30:39;15.82;;;9.05;;
73487;SDS011;61721;42.206;25.320;2022-12-07T00:33:06;17.65;;;8.07;;
73487;SDS011;61721;42.206;25.320;2022-12-07T00:35:34;18.35;;;8.80;;
73487;SDS011;61721;42.206;25.320;2022-12-07T00:38:01;19.48;;;10.15;;
73487;SDS011;61721;42.206;25.320;2022-12-07T00:40:28;20.65;;;10.13;;
73487;SDS011;61721;42.206;25.320;2022-12-07T00:42:55;21.00;;;8.93;;
73487;SDS011;61721;42.206;25.320;2022-12-07T00:45:22;22.08;;;9.77;;
73487;SDS011;61721;42.206;25.320;2022-12-07T00:47:51;20.58;;;9.32;;
73487;SDS011;61721;42.206;25.320;2022-12-07T00:50:18;19.38;;;8.85;;
73487;SDS011;61721;42.206;25.320;2022-12-07T00:52:45;18.05;;;9.25;;
73487;SDS011;61721;42.206;25.320;2022-12-07T00:55:12;21.20;;;9.77;;
73487;SDS011;61721;42.206;25.320;2022-12-07T00:57:39;18.42;;;9.38;;
73487;SDS011;61721;42.206;25.320;2022-12-07T01:00:07;21.25;;;9.50;;
73487;SDS011;61721;42.206;25.320;2022-12-07T01:02:35;22.30;;;9.60;;
73487;SDS011;61721;42.206;25.320;2022-12-07T01:05:04;20.60;;;9.38;;
73487;SDS011;61721;42.206;25.320;2022-12-07T01:07:32;19.30;;;9.43;;
73487;SDS011;61721;42.206;25.320;2022-12-07T01:09:59;16.95;;;9.52;;
73487;SDS011;61721;42.206;25.320;2022-12-07T01:12:26;19.73;;;10.60;;
73487;SDS011;61721;42.206;25.320;2022-12-07T01:14:53;21.23;;;9.98;;
73487;SDS011;61721;42.206;25.320;2022-12-07T01:17:20;21.45;;;10.23;;
73487;SDS011;61721;42.206;25.320;2022-12-07T01:19:47;19.58;;;9.15;;
73487;SDS011;61721;42.206;25.320;2022-12-07T01:22:16;22.20;;;10.43;;
73487;SDS011;61721;42.206;25.320;2022-12-07T01:24:43;19.13;;;8.70;;
73487;SDS011;61721;42.206;25.320;2022-12-07T01:27:12;16.65;;;8.93;;
73487;SDS011;61721;42.206;25.320;2022-12-07T01:29:39;16.30;;;7.75;;
73487;SDS011;61721;42.206;25.320;2022-12-07T01:32:06;16.45;;;7.90;;
73487;SDS011;61721;42.206;25.320;2022-12-07T01:34:33;18.55;;;8.70;;
73487;SDS011;61721;42.206;25.320;2022-12-07T01:37:01;16.85;;;9.07;;
73487;SDS011;61721;42.206;25.320;2022-12-07T01:39:29;18.60;;;9.70;;
73487;SDS011;61721;42.206;25.320;2022-12-07T01:41:56;15.75;;;8.93;;
73487;SDS011;61721;42.206;25.320;2022-12-07T01:44:24;18.23;;;8.60;;
73487;SDS011;61721;42.206;25.320;2022-12-07T01:46:55;17.40;;;8.60;;
73487;SDS011;61721;42.206;25.320;2022-12-07T01:49:26;16.70;;;8.52;;
73487;SDS011;61721;42.206;25.320;2022-12-07T01:52:01;17.63;;;9.00;;
73487;SDS011;61721;42.206;25.320;2022-12-07T01:54:38;17.08;;;8.30;;
73487;SDS011;61721;42.206;25.320;2022-12-07T01:57:05;16.75;;;7.70;;
73487;SDS011;61721;42.206;25.320;2022-12-07T01:59:34;18.27;;;8.57;;
73487;SDS011;61721;42.206;25.320;2022-12-07T02:02:02;19.25;;;8.93;;
73487;SDS011;61721;42.206;25.320;2022-12-07T02:04:35;15.70;;;8.02;;
73487;SDS011;61721;42.206;25.320;2022-12-07T02:07:02;17.83;;;8.57;;
73487;SDS011;61721;42.206;25.320;2022-12-07T02:09:31;16.60;;;8.23;;
73487;SDS011;61721;42.206;25.320;2022-12-07T02:12:00;17.33;;;8.75;;
73487;SDS011;61721;42.206;25.320;2022-12-07T02:14:27;24.88;;;12.43;;
73487;SDS011;61721;42.206;25.320;2022-12-07T02:17:00;18.67;;;9.55;;
73487;SDS011;61721;42.206;25.320;2022-12-07T02:22:42;17.05;;;8.38;;
73487;SDS011;61721;42.206;25.320;2022-12-07T02:25:38;15.25;;;8.38;;
73487;SDS011;61721;42.206;25.320;2022-12-07T02:28:21;17.13;;;8.70;;
73487;SDS011;61721;42.206;25.320;2022-12-07T02:30:58;17.90;;;8.65;;
73487;SDS011;61721;42.206;25.320;2022-12-07T02:33:32;17.50;;;8.68;;
73487;SDS011;61721;42.206;25.320;2022-12-07T02:36:04;15.77;;;7.53;;
73487;SDS011;61721;42.206;25.320;2022-12-07T02:38:35;14.02;;;7.28;;
73487;SDS011;61721;42.206;25.320;2022-12-07T02:41:07;14.43;;;7.95;;
73487;SDS011;61721;42.206;25.320;2022-12-07T02:43:39;14.05;;;7.18;;
73487;SDS011;61721;42.206;25.320;2022-12-07T02:46:12;16.83;;;8.05;;
73487;SDS011;61721;42.206;25.320;2022-12-07T02:48:43;17.55;;;8.57;;
73487;SDS011;61721;42.206;25.320;2022-12-07T02:51:12;17.67;;;8.20;;
73487;SDS011;61721;42.206;25.320;2022-12-07T02:53:39;17.48;;;7.93;;
73487;SDS011;61721;42.206;25.320;2022-12-07T02:56:10;17.80;;;8.10;;
73487;SDS011;61721;42.206;25.320;2022-12-07T02:58:48;16.15;;;8.15;;
73487;SDS011;61721;42.206;25.320;2022-12-07T03:01:28;15.20;;;7.45;;
73487;SDS011;61721;42.206;25.320;2022-12-07T03:04:06;14.52;;;7.85;;
73487;SDS011;61721;42.206;25.320;2022-12-07T03:06:46;19.42;;;8.23;;
73487;SDS011;61721;42.206;25.320;2022-12-07T03:09:20;16.63;;;7.63;;
73487;SDS011;61721;42.206;25.320;2022-12-07T03:11:55;12.52;;;6.45;;
73487;SDS011;61721;42.206;25.320;2022-12-07T03:14:29;15.25;;;7.43;;
73487;SDS011;61721;42.206;25.320;2022-12-07T03:17:00;12.38;;;6.32;;
73487;SDS011;61721;42.206;25.320;2022-12-07T03:19:34;11.80;;;6.40;;
73487;SDS011;61721;42.206;25.320;2022-12-07T03:22:04;11.25;;;5.75;;
73487;SDS011;61721;42.206;25.320;2022-12-07T03:24:35;11.38;;;5.95;;
73487;SDS011;61721;42.206;25.320;2022-12-07T03:27:06;13.02;;;5.47;;
73487;SDS011;61721;42.206;25.320;2022-12-07T03:29:40;12.80;;;5.85;;
73487;SDS011;61721;42.206;25.320;2022-12-07T03:32:14;12.63;;;5.88;;
73487;SDS011;61721;42.206;25.320;2022-12-07T03:34:47;14.32;;;5.93;;
73487;SDS011;61721;42.206;25.320;2022-12-07T03:37:20;12.57;;;6.03;;
73487;SDS011;61721;42.206;25.320;2022-12-07T03:39:57;11.40;;;6.35;;
73487;SDS011;61721;42.206;25.320;2022-12-07T03:42:33;15.20;;;6.18;;
73487;SDS011;61721;42.206;25.320;2022-12-07T03:45:01;11.45;;;5.00;;
73487;SDS011;61721;42.206;25.320;2022-12-07T03:47:32;11.07;;;5.32;;
73487;SDS011;61721;42.206;25.320;2022-12-07T03:50:05;10.82;;;5.35;;
73487;SDS011;61721;42.206;25.320;2022-12-07T03:52:39;12.55;;;5.82;;
73487;SDS011;61721;42.206;25.320;2022-12-07T03:55:10;18.10;;;8.50;;
73487;SDS011;61721;42.206;25.320;2022-12-07T03:57:41;27.67;;;12.82;;
73487;SDS011;61721;42.206;25.320;2022-12-07T04:00:11;19.25;;;8.27;;
73487;SDS011;61721;42.206;25.320;2022-12-07T04:02:41;16.80;;;7.13;;
73487;SDS011;61721;42.206;25.320;2022-12-07T04:05:09;19.17;;;7.88;;
73487;SDS011;61721;42.206;25.320;2022-12-07T04:07:37;18.30;;;8.25;;
73487;SDS011;61721;42.206;25.320;2022-12-07T04:10:05;15.20;;;7.90;;
73487;SDS011;61721;42.206;25.320;2022-12-07T04:12:34;11.13;;;5.60;;
73487;SDS011;61721;42.206;25.320;2022-12-07T04:15:01;12.63;;;5.68;;
73487;SDS011;61721;42.206;25.320;2022-12-07T04:17:28;9.68;;;5.03;;
73487;SDS011;61721;42.206;25.320;2022-12-07T04:19:57;8.90;;;4.82;;
73487;SDS011;61721;42.206;25.320;2022-12-07T04:22:24;11.32;;;5.65;;
73487;SDS011;61721;42.206;25.320;2022-12-07T04:24:52;17.13;;;8.68;;
73487;SDS011;61721;42.206;25.320;2022-12-07T04:27:19;17.52;;;9.85;;
73487;SDS011;61721;42.206;25.320;2022-12-07T04:29:46;24.35;;;12.82;;
73487;SDS011;61721;42.206;25.320;2022-12-07T04:32:14;32.35;;;16.10;;
73487;SDS011;61721;42.206;25.320;2022-12-07T04:34:41;24.15;;;11.40;;
73487;SDS011;61721;42.206;25.320;2022-12-07T04:37:09;22.88;;;11.13;;
73487;SDS011;61721;42.206;25.320;2022-12-07T04:39:36;14.60;;;7.50;;
73487;SDS011;61721;42.206;25.320;2022-12-07T04:42:04;10.27;;;5.68;;
73487;SDS011;61721;42.206;25.320;2022-12-07T04:44:31;11.52;;;5.25;;
73487;SDS011;61721;42.206;25.320;2022-12-07T04:46:58;13.45;;;6.32;;
73487;SDS011;61721;42.206;25.320;2022-12-07T04:49:25;11.05;;;5.03;;
73487;SDS011;61721;42.206;25.320;2022-12-07T04:51:53;9.23;;;5.15;;
73487;SDS011;61721;42.206;25.320;2022-12-07T04:54:22;12.45;;;5.78;;
73487;SDS011;61721;42.206;25.320;2022-12-07T04:56:49;14.55;;;6.32;;
73487;SDS011;61721;42.206;25.320;2022-12-07T04:59:16;10.55;;;5.95;;
73487;SDS011;61721;42.206;25.320;2022-12-07T05:01:43;11.35;;;6.07;;
73487;SDS011;61721;42.206;25.320;2022-12-07T05:04:11;15.20;;;6.82;;
73487;SDS011;61721;42.206;25.320;2022-12-07T05:06:38;14.02;;;6.53;;
73487;SDS011;61721;42.206;25.320;2022-12-07T05:09:05;19.50;;;11.38;;
73487;SDS011;61721;42.206;25.320;2022-12-07T05:11:34;14.52;;;8.35;;
73487;SDS011;61721;42.206;25.320;2022-12-07T05:14:09;22.13;;;13.00;;
73487;SDS011;61721;42.206;25.320;2022-12-07T05:16:39;17.85;;;9.50;;
73487;SDS011;61721;42.206;25.320;2022-12-07T05:19:10;17.85;;;7.75;;
73487;SDS011;61721;42.206;25.320;2022-12-07T05:21:38;17.05;;;8.75;;
73487;SDS011;61721;42.206;25.320;2022-12-07T05:24:06;14.65;;;8.35;;
73487;SDS011;61721;42.206;25.320;2022-12-07T05:26:37;20.67;;;11.32;;
73487;SDS011;61721;42.206;25.320;2022-12-07T05:29:04;21.80;;;10.23;;
73487;SDS011;61721;42.206;25.320;2022-12-07T05:31:32;18.52;;;8.70;;
73487;SDS011;61721;42.206;25.320;2022-12-07T05:33:59;14.63;;;7.85;;
73487;SDS011;61721;42.206;25.320;2022-12-07T05:36:26;13.57;;;7.03;;
73487;SDS011;61721;42.206;25.320;2022-12-07T05:38:56;15.45;;;7.30;;
73487;SDS011;61721;42.206;25.320;2022-12-07T05:41:23;14.65;;;7.03;;
73487;SDS011;61721;42.206;25.320;2022-12-07T05:44:09;16.42;;;8.30;;
73487;SDS011;61721;42.206;25.320;2022-12-07T05:46:36;17.73;;;8.98;;
73487;SDS011;61721;42.206;25.320;2022-12-07T05:49:03;17.90;;;9.23;;
73487;SDS011;61721;42.206;25.320;2022-12-07T05:51:30;15.52;;;8.02;;
73487;SDS011;61721;42.206;25.320;2022-12-07T05:53:57;12.98;;;7.30;;
73487;SDS011;61721;42.206;25.320;2022-12-07T05:56:25;17.83;;;8.90;;
73487;SDS011;61721;42.206;25.320;2022-12-07T05:58:52;15.88;;;6.95;;
73487;SDS011;61721;42.206;25.320;2022-12-07T06:01:39;15.38;;;8.02;;
73487;SDS011;61721;42.206;25.320;2022-12-07T06:04:06;15.95;;;8.20;;
73487;SDS011;61721;42.206;25.320;2022-12-07T06:06:33;20.50;;;8.85;;
73487;SDS011;61721;42.206;25.320;2022-12-07T06:09:00;21.13;;;10.52;;
73487;SDS011;61721;42.206;25.320;2022-12-07T06:11:28;20.23;;;10.23;;
73487;SDS011;61721;42.206;25.320;2022-12-07T06:14:12;26.33;;;13.38;;
73487;SDS011;61721;42.206;25.320;2022-12-07T06:16:41;26.38;;;15.52;;
73487;SDS011;61721;42.206;25.320;2022-12-07T06:19:08;35.75;;;19.35;;
73487;SDS011;61721;42.206;25.320;2022-12-07T06:21:36;40.38;;;20.10;;
73487;SDS011;61721;42.206;25.320;2022-12-07T06:24:03;51.80;;;26.63;;
73487;SDS011;61721;42.206;25.320;2022-12-07T06:26:30;50.67;;;25.80;;
73487;SDS011;61721;42.206;25.320;2022-12-07T06:28:58;48.90;;;25.92;;
73487;SDS011;61721;42.206;25.320;2022-12-07T06:31:25;40.70;;;24.20;;
73487;SDS011;61721;42.206;25.320;2022-12-07T06:33:57;34.50;;;17.92;;
73487;SDS011;61721;42.206;25.320;2022-12-07T06:36:25;24.08;;;13.02;;
73487;SDS011;61721;42.206;25.320;2022-12-07T06:38:53;16.92;;;10.20;;
73487;SDS011;61721;42.206;25.320;2022-12-07T06:41:20;18.33;;;8.45;;
73487;SDS011;61721;42.206;25.320;2022-12-07T06:43:48;15.50;;;8.35;;
73487;SDS011;61721;42.206;25.320;2022-12-07T06:46:16;16.05;;;8.38;;
73487;SDS011;61721;42.206;25.320;2022-12-07T06:48:43;14.65;;;7.72;;
73487;SDS011;61721;42.206;25.320;2022-12-07T06:51:12;16.80;;;8.70;;
73487;SDS011;61721;42.206;25.320;2022-12-07T06:53:39;14.80;;;7.70;;
73487;SDS011;61721;42.206;25.320;2022-12-07T06:56:07;15.75;;;8.77;;
73487;SDS011;61721;42.206;25.320;2022-12-07T06:58:34;14.77;;;8.48;;
73487;SDS011;61721;42.206;25.320;2022-12-07T07:01:01;16.85;;;7.75;;
73487;SDS011;61721;42.206;25.320;2022-12-07T07:03:28;13.85;;;7.50;;
73487;SDS011;61721;42.206;25.320;2022-12-07T07:05:56;16.85;;;8.65;;
73487;SDS011;61721;42.206;25.320;2022-12-07T07:08:24;13.10;;;6.65;;
73487;SDS011;61721;42.206;25.320;2022-12-07T07:10:51;15.60;;;7.72;;
73487;SDS011;61721;42.206;25.320;2022-12-07T07:13:19;15.00;;;7.30;;
73487;SDS011;61721;42.206;25.320;2022-12-07T07:15:46;15.32;;;7.43;;
73487;SDS011;61721;42.206;25.320;2022-12-07T07:18:13;14.05;;;7.20;;
73487;SDS011;61721;42.206;25.320;2022-12-07T07:20:40;16.73;;;8.50;;
73487;SDS011;61721;42.206;25.320;2022-12-07T07:23:07;22.90;;;11.90;;
73487;SDS011;61721;42.206;25.320;2022-12-07T07:25:36;19.85;;;9.70;;
73487;SDS011;61721;42.206;25.320;2022-12-07T07:28:03;18.17;;;9.82;;
73487;SDS011;61721;42.206;25.320;2022-12-07T07:30:31;20.05;;;10.18;;
73487;SDS011;61721;42.206;25.320;2022-12-07T07:32:58;21.13;;;9.70;;
73487;SDS011;61721;42.206;25.320;2022-12-07T07:35:25;19.27;;;9.13;;
73487;SDS011;61721;42.206;25.320;2022-12-07T07:37:53;19.15;;;9.65;;
73487;SDS011;61721;42.206;25.320;2022-12-07T07:40:20;18.50;;;9.27;;
73487;SDS011;61721;42.206;25.320;2022-12-07T07:42:49;26.33;;;12.98;;
73487;SDS011;61721;42.206;25.320;2022-12-07T07:45:18;20.48;;;10.07;;
73487;SDS011;61721;42.206;25.320;2022-12-07T07:47:45;14.85;;;7.43;;
73487;SDS011;61721;42.206;25.320;2022-12-07T07:50:12;18.98;;;8.48;;
73487;SDS011;61721;42.206;25.320;2022-12-07T07:52:40;31.50;;;12.80;;
73487;SDS011;61721;42.206;25.320;2022-12-07T07:55:07;27.33;;;14.23;;
73487;SDS011;61721;42.206;25.320;2022-12-07T07:57:35;22.10;;;10.88;;
73487;SDS011;61721;42.206;25.320;2022-12-07T08:00:04;29.20;;;15.50;;
73487;SDS011;61721;42.206;25.320;2022-12-07T08:02:33;50.75;;;29.75;;
73487;SDS011;61721;42.206;25.320;2022-12-07T08:05:01;37.88;;;20.00;;
73487;SDS011;61721;42.206;25.320;2022-12-07T08:07:28;17.65;;;8.63;;
73487;SDS011;61721;42.206;25.320;2022-12-07T08:09:55;44.25;;;21.02;;
73487;SDS011;61721;42.206;25.320;2022-12-07T08:12:22;92.88;;;39.10;;
73487;SDS011;61721;42.206;25.320;2022-12-07T08:14:49;69.13;;;31.15;;
73487;SDS011;61721;42.206;25.320;2022-12-07T08:17:18;21.15;;;10.73;;
73487;SDS011;61721;42.206;25.320;2022-12-07T08:19:45;28.75;;;14.15;;
73487;SDS011;61721;42.206;25.320;2022-12-07T08:22:12;16.60;;;8.77;;
73487;SDS011;61721;42.206;25.320;2022-12-07T08:24:39;16.88;;;8.15;;
73487;SDS011;61721;42.206;25.320;2022-12-07T08:27:07;20.85;;;8.60;;
73487;SDS011;61721;42.206;25.320;2022-12-07T08:29:34;24.55;;;10.88;;
73487;SDS011;61721;42.206;25.320;2022-12-07T08:32:02;16.75;;;8.23;;
73487;SDS011;61721;42.206;25.320;2022-12-07T08:34:30;21.73;;;8.95;;
73487;SDS011;61721;42.206;25.320;2022-12-07T08:36:58;18.10;;;9.93;;
73487;SDS011;61721;42.206;25.320;2022-12-07T08:39:25;15.98;;;8.32;;
73487;SDS011;61721;42.206;25.320;2022-12-07T08:41:52;22.05;;;11.57;;
73487;SDS011;61721;42.206;25.320;2022-12-07T08:44:20;18.67;;;9.23;;
73487;SDS011;61721;42.206;25.320;2022-12-07T08:46:49;21.52;;;9.55;;
73487;SDS011;61721;42.206;25.320;2022-12-07T08:49:20;19.13;;;9.73;;
73487;SDS011;61721;42.206;25.320;2022-12-07T08:51:52;17.70;;;8.95;;
73487;SDS011;61721;42.206;25.320;2022-12-07T08:54:22;21.67;;;9.52;;
73487;SDS011;61721;42.206;25.320;2022-12-07T08:56:49;21.88;;;9.32;;
73487;SDS011;61721;42.206;25.320;2022-12-07T08:59:18;25.20;;;11.80;;
73487;SDS011;61721;42.206;25.320;2022-12-07T09:01:47;20.33;;;9.02;;
73487;SDS011;61721;42.206;25.320;2022-12-07T09:04:14;21.73;;;9.73;;
73487;SDS011;61721;42.206;25.320;2022-12-07T09:06:41;48.85;;;21.75;;
73487;SDS011;61721;42.206;25.320;2022-12-07T09:09:10;27.88;;;13.60;;
73487;SDS011;61721;42.206;25.320;2022-12-07T09:11:39;28.88;;;13.07;;
73487;SDS011;61721;42.206;25.320;2022-12-07T09:14:06;29.05;;;13.95;;
73487;SDS011;61721;42.206;25.320;2022-12-07T09:16:34;27.75;;;15.95;;
73487;SDS011;61721;42.206;25.320;2022-12-07T09:19:01;23.00;;;12.40;;
73487;SDS011;61721;42.206;25.320;2022-12-07T09:21:28;20.48;;;11.18;;
73487;SDS011;61721;42.206;25.320;2022-12-07T09:23:56;24.85;;;10.95;;
73487;SDS011;61721;42.206;25.320;2022-12-07T09:26:25;20.83;;;10.18;;
73487;SDS011;61721;42.206;25.320;2022-12-07T09:28:52;19.73;;;10.10;;
73487;SDS011;61721;42.206;25.320;2022-12-07T09:31:19;21.35;;;9.98;;
73487;SDS011;61721;42.206;25.320;2022-12-07T09:33:46;21.63;;;10.32;;
73487;SDS011;61721;42.206;25.320;2022-12-07T09:36:13;20.85;;;9.65;;
73487;SDS011;61721;42.206;25.320;2022-12-07T09:38:42;23.13;;;10.32;;
73487;SDS011;61721;42.206;25.320;2022-12-07T09:41:09;22.27;;;10.98;;
73487;SDS011;61721;42.206;25.320;2022-12-07T09:43:38;22.60;;;9.82;;
73487;SDS011;61721;42.206;25.320;2022-12-07T09:46:08;18.23;;;8.75;;
73487;SDS011;61721;42.206;25.320;2022-12-07T09:48:41;23.05;;;10.35;;
73487;SDS011;61721;42.206;25.320;2022-12-07T09:51:13;21.70;;;10.60;;
73487;SDS011;61721;42.206;25.320;2022-12-07T09:53:43;18.38;;;9.18;;
73487;SDS011;61721;42.206;25.320;2022-12-07T09:56:11;17.10;;;8.10;;
73487;SDS011;61721;42.206;25.320;2022-12-07T09:58:42;21.17;;;10.40;;
73487;SDS011;61721;42.206;25.320;2022-12-07T10:01:11;18.10;;;8.68;;
73487;SDS011;61721;42.206;25.320;2022-12-07T10:03:40;20.38;;;9.65;;
73487;SDS011;61721;42.206;25.320;2022-12-07T10:06:13;16.88;;;8.25;;
73487;SDS011;61721;42.206;25.320;2022-12-07T10:08:40;22.00;;;10.65;;
73487;SDS011;61721;42.206;25.320;2022-12-07T10:11:09;23.05;;;11.07;;
73487;SDS011;61721;42.206;25.320;2022-12-07T10:13:37;22.40;;;10.52;;
73487;SDS011;61721;42.206;25.320;2022-12-07T10:16:24;21.38;;;10.95;;
73487;SDS011;61721;42.206;25.320;2022-12-07T10:19:23;21.83;;;10.32;;
73487;SDS011;61721;42.206;25.320;2022-12-07T10:22:03;19.73;;;9.75;;
73487;SDS011;61721;42.206;25.320;2022-12-07T10:24:37;18.33;;;8.93;;
73487;SDS011;61721;42.206;25.320;2022-12-07T10:27:11;20.10;;;10.07;;
73487;SDS011;61721;42.206;25.320;2022-12-07T10:29:48;16.00;;;8.75;;
73487;SDS011;61721;42.206;25.320;2022-12-07T10:32:31;22.98;;;10.30;;
73487;SDS011;61721;42.206;25.320;2022-12-07T10:37:53;18.10;;;9.57;;
73487;SDS011;61721;42.206;25.320;2022-12-07T10:40:30;20.27;;;10.90;;
73487;SDS011;61721;42.206;25.320;2022-12-07T10:43:03;18.45;;;9.73;;
73487;SDS011;61721;42.206;25.320;2022-12-07T10:45:34;18.33;;;10.27;;
73487;SDS011;61721;42.206;25.320;2022-12-07T10:48:13;18.90;;;9.38;;
73487;SDS011;61721;42.206;25.320;2022-12-07T10:50:52;20.42;;;10.20;;
73487;SDS011;61721;42.206;25.320;2022-12-07T10:53:37;19.38;;;10.10;;
73487;SDS011;61721;42.206;25.320;2022-12-07T10:56:35;16.80;;;9.18;;
73487;SDS011;61721;42.206;25.320;2022-12-07T10:59:24;24.45;;;12.70;;
73487;SDS011;61721;42.206;25.320;2022-12-07T11:02:17;21.52;;;9.70;;
73487;SDS011;61721;42.206;25.320;2022-12-07T11:05:01;18.17;;;9.15;;
73487;SDS011;61721;42.206;25.320;2022-12-07T11:07:43;19.67;;;9.82;;
73487;SDS011;61721;42.206;25.320;2022-12-07T11:10:19;17.45;;;9.55;;
73487;SDS011;61721;42.206;25.320;2022-12-07T11:13:04;19.13;;;8.95;;
73487;SDS011;61721;42.206;25.320;2022-12-07T11:15:49;16.40;;;8.65;;
73487;SDS011;61721;42.206;25.320;2022-12-07T11:18:27;17.73;;;8.45;;
73487;SDS011;61721;42.206;25.320;2022-12-07T11:21:05;16.33;;;8.15;;
73487;SDS011;61721;42.206;25.320;2022-12-07T11:23:42;15.95;;;8.65;;
73487;SDS011;61721;42.206;25.320;2022-12-07T11:26:17;15.43;;;8.00;;
73487;SDS011;61721;42.206;25.320;2022-12-07T11:29:02;16.48;;;8.30;;
73487;SDS011;61721;42.206;25.320;2022-12-07T11:31:47;16.33;;;8.20;;
73487;SDS011;61721;42.206;25.320;2022-12-07T11:34:23;13.88;;;8.63;;
73487;SDS011;61721;42.206;25.320;2022-12-07T11:37:00;15.63;;;8.38;;
73487;SDS011;61721;42.206;25.320;2022-12-07T11:39:33;18.52;;;8.80;;
73487;SDS011;61721;42.206;25.320;2022-12-07T11:42:04;18.30;;;8.90;;
73487;SDS011;61721;42.206;25.320;2022-12-07T11:44:37;42.28;;;16.35;;
73487;SDS011;61721;42.206;25.320;2022-12-07T11:47:13;24.10;;;10.45;;
73487;SDS011;61721;42.206;25.320;2022-12-07T11:49:47;14.77;;;8.20;;
73487;SDS011;61721;42.206;25.320;2022-12-07T11:52:25;16.75;;;8.00;;
73487;SDS011;61721;42.206;25.320;2022-12-07T11:54:57;15.52;;;8.30;;
73487;SDS011;61721;42.206;25.320;2022-12-07T11:57:28;17.27;;;7.65;;
73487;SDS011;61721;42.206;25.320;2022-12-07T12:00:03;15.85;;;8.00;;
73487;SDS011;61721;42.206;25.320;2022-12-07T12:02:34;16.15;;;7.43;;
73487;SDS011;61721;42.206;25.320;2022-12-07T12:05:13;13.52;;;7.13;;
73487;SDS011;61721;42.206;25.320;2022-12-07T12:07:44;13.98;;;7.47;;
73487;SDS011;61721;42.206;25.320;2022-12-07T12:10:15;21.90;;;9.90;;
73487;SDS011;61721;42.206;25.320;2022-12-07T12:12:54;17.08;;;8.05;;
73487;SDS011;61721;42.206;25.320;2022-12-07T12:15:46;13.95;;;7.18;;
73487;SDS011;61721;42.206;25.320;2022-12-07T12:18:38;14.43;;;7.38;;
73487;SDS011;61721;42.206;25.320;2022-12-07T12:21:15;14.85;;;7.03;;
73487;SDS011;61721;42.206;25.320;2022-12-07T12:23:48;16.80;;;7.53;;
73487;SDS011;61721;42.206;25.320;2022-12-07T12:26:18;18.30;;;8.10;;
73487;SDS011;61721;42.206;25.320;2022-12-07T12:28:51;17.98;;;9.00;;
73487;SDS011;61721;42.206;25.320;2022-12-07T12:36:57;17.85;;;8.32;;
73487;SDS011;61721;42.206;25.320;2022-12-07T12:39:27;18.83;;;8.40;;
73487;SDS011;61721;42.206;25.320;2022-12-07T12:41:56;17.27;;;7.90;;
73487;SDS011;61721;42.206;25.320;2022-12-07T12:47:42;17.88;;;8.05;;
73487;SDS011;61721;42.206;25.320;2022-12-07T12:50:21;15.48;;;8.00;;
73487;SDS011;61721;42.206;25.320;2022-12-07T12:52:52;19.45;;;9.52;;
73487;SDS011;61721;42.206;25.320;2022-12-07T12:55:42;15.10;;;7.10;;
73487;SDS011;61721;42.206;25.320;2022-12-07T12:58:31;19.60;;;7.75;;
73487;SDS011;61721;42.206;25.320;2022-12-07T13:07:01;17.50;;;8.02;;
73487;SDS011;61721;42.206;25.320;2022-12-07T13:09:32;17.17;;;8.48;;
73487;SDS011;61721;42.206;25.320;2022-12-07T13:12:03;18.75;;;9.07;;
73487;SDS011;61721;42.206;25.320;2022-12-07T13:14:39;24.35;;;9.25;;
73487;SDS011;61721;42.206;25.320;2022-12-07T13:17:09;18.42;;;9.20;;
73487;SDS011;61721;42.206;25.320;2022-12-07T13:25:19;24.60;;;12.13;;
73487;SDS011;61721;42.206;25.320;2022-12-07T13:28:00;18.70;;;10.23;;
73487;SDS011;61721;42.206;25.320;2022-12-07T13:30:35;26.48;;;12.77;;
73487;SDS011;61721;42.206;25.320;2022-12-07T13:33:13;25.30;;;13.43;;
73487;SDS011;61721;42.206;25.320;2022-12-07T13:35:43;23.65;;;11.25;;
73487;SDS011;61721;42.206;25.320;2022-12-07T13:38:21;19.50;;;10.45;;
73487;SDS011;61721;42.206;25.320;2022-12-07T13:41:12;25.17;;;11.27;;
73487;SDS011;61721;42.206;25.320;2022-12-07T13:43:46;29.25;;;12.98;;
73487;SDS011;61721;42.206;25.320;2022-12-07T13:46:17;21.85;;;12.70;;
73487;SDS011;61721;42.206;25.320;2022-12-07T13:48:46;21.13;;;11.43;;
73487;SDS011;61721;42.206;25.320;2022-12-07T13:51:19;41.92;;;20.85;;
73487;SDS011;61721;42.206;25.320;2022-12-07T13:53:49;27.70;;;15.10;;
73487;SDS011;61721;42.206;25.320;2022-12-07T13:56:17;28.35;;;11.27;;
73487;SDS011;61721;42.206;25.320;2022-12-07T13:58:48;25.08;;;11.05;;
73487;SDS011;61721;42.206;25.320;2022-12-07T14:01:16;22.05;;;10.35;;
73487;SDS011;61721;42.206;25.320;2022-12-07T14:06:47;24.75;;;10.32;;
73487;SDS011;61721;42.206;25.320;2022-12-07T14:09:19;20.17;;;9.70;;
73487;SDS011;61721;42.206;25.320;2022-12-07T14:11:47;22.38;;;10.48;;
73487;SDS011;61721;42.206;25.320;2022-12-07T14:14:19;23.27;;;9.63;;
73487;SDS011;61721;42.206;25.320;2022-12-07T14:16:56;36.63;;;10.90;;
73487;SDS011;61721;42.206;25.320;2022-12-07T14:19:42;21.95;;;10.80;;
73487;SDS011;61721;42.206;25.320;2022-12-07T14:22:19;26.50;;;10.90;;
73487;SDS011;61721;42.206;25.320;2022-12-07T14:24:49;22.13;;;10.32;;
73487;SDS011;61721;42.206;25.320;2022-12-07T14:27:17;23.35;;;10.55;;
73487;SDS011;61721;42.206;25.320;2022-12-07T14:29:46;22.58;;;10.57;;
73487;SDS011;61721;42.206;25.320;2022-12-07T14:32:17;32.58;;;11.98;;
73487;SDS011;61721;42.206;25.320;2022-12-07T14:34:54;27.50;;;11.10;;
73487;SDS011;61721;42.206;25.320;2022-12-07T14:37:23;26.55;;;11.00;;
73487;SDS011;61721;42.206;25.320;2022-12-07T14:39:50;26.58;;;11.27;;
73487;SDS011;61721;42.206;25.320;2022-12-07T14:42:18;27.48;;;11.15;;
73487;SDS011;61721;42.206;25.320;2022-12-07T14:44:47;23.13;;;11.60;;
73487;SDS011;61721;42.206;25.320;2022-12-07T14:47:14;31.92;;;14.43;;
73487;SDS011;61721;42.206;25.320;2022-12-07T14:49:42;33.40;;;16.27;;
73487;SDS011;61721;42.206;25.320;2022-12-07T14:52:12;34.30;;;18.42;;
73487;SDS011;61721;42.206;25.320;2022-12-07T14:54:42;41.10;;;18.17;;
73487;SDS011;61721;42.206;25.320;2022-12-07T14:57:10;42.80;;;19.02;;
73487;SDS011;61721;42.206;25.320;2022-12-07T14:59:38;35.55;;;18.52;;
73487;SDS011;61721;42.206;25.320;2022-12-07T15:02:07;48.58;;;23.88;;
73487;SDS011;61721;42.206;25.320;2022-12-07T15:04:37;51.13;;;24.13;;
73487;SDS011;61721;42.206;25.320;2022-12-07T15:07:05;51.42;;;22.75;;
73487;SDS011;61721;42.206;25.320;2022-12-07T15:09:39;38.67;;;17.33;;